Elberfeld, IN (47613)

1:29 AM CST on February 06, 2016 (GMT -0600)
Evansville Regional | | Change Station
CLOSE
Current Station
Airport
Location: Evansville,
Elevation: 387 ft
Nearby Weather Stations
Active Advisory: Flood Warning

Elev 387 ft 38.04 °N, 87.52 °W | Updated 35 minutes ago

Mostly Cloudy
Mostly Cloudy
31 °F
Feels Like 31 °F
N
0
Wind Variable Wind from North

Today
High -- | Low -- °F
--% Chance of Precip.
Yesterday
High -- | Low -- °F
Precip. -- in
Pressure 30.37 in
Visibility 10.0 miles
Clouds Clear
Dew Point 23 °F
Humidity 72%
Rainfall 0.00 in
Snow Depth Not available.
6:50 AM 5:17 PM
Waning Crescent, 7% visible
METAR KEVV 060654Z AUTO 00000KT 10SM CLR M01/M05 A3036 RMK AO2 SLP284 T10061050
Pressure 30.37 in
Visibility 10.0 miles
Clouds Clear
Dew Point 23 °F
Humidity 72%
Rainfall 0.00 in
Snow Depth Not available.
6:50 AM 5:17 PM
Waning Crescent, 7% visible
METAR KEVV 060654Z AUTO 00000KT 10SM CLR M01/M05 A3036 RMK AO2 SLP284 T10061050

10-Day Weather Forecast

Almanac

Astronomy

Feb. 06, 2016 Rise Set
Actual Time
Civil Twilight
Nautical Twilight
Astronomical Twilight
Moon
Length of Visible Light
Length of Day
Tomorrow will be .
, % of the Moon is Illuminated

Today's Extremes

State Highs State Lows

Community

WunderPhotos

Upload Photos

1,890,933 photos uploaded!

WunderBlog® & News

Nearby

Air Quality

  Air Quality AQ Index Pollutant
Not available.

Snow Depth

Station Depth Elevation

Earthquake Activity

City Distance Mag. Time & Date
Minimum magnitude displayed is 2.5.

Coastal Water Temperatures

Place Temperature

Stations

Nearby Weather Stations

Station Location Temp. Windchill Dew Point Humidity Wind Precip. Elev Updated Type
                   

Watches & Warnings

Flood Warning
Issued: 9:18 PM CST Feb. 5, 2016 – National Weather Service

The Flood Warning continues for
the Ohio River at Newburgh dam
* from Saturday morning to late Tuesday night.
* At 8:00 PM Friday the stage was 37.2 feet.
* Flood stage is 38.0 feet.
* Minor flooding is forecast.
* Impact... at 38.0 feet... minor flooding occurs. The river is 2500
feet wide and begins covering agricultural land on the Kentucky
side.


Lat... Lon 3801 8745 3787 8745 3780 8728 3790 8721